createdAt,value
2022-11-26T00:11:19.899Z,7.7
2022-11-26T00:31:19.667Z,5.9
2022-11-26T00:51:19.405Z,14.1
2022-11-26T01:11:19.128Z,12.2
2022-11-26T01:31:18.873Z,12.7
2022-11-26T01:51:18.610Z,8.7
2022-11-26T02:11:18.298Z,5.4
2022-11-26T02:31:18.065Z,7.7
2022-11-26T02:51:17.754Z,5.0
2022-11-26T03:11:17.544Z,6.4
2022-11-26T03:31:17.247Z,9.5
2022-11-26T03:51:16.950Z,11.3
2022-11-26T04:11:16.703Z,5.8
2022-11-26T04:31:16.543Z,12.1
2022-11-26T04:51:16.141Z,7.5
2022-11-26T05:11:15.933Z,7.9
2022-11-26T05:31:15.669Z,8.3
2022-11-26T05:51:15.342Z,10.7
2022-11-26T06:11:15.075Z,12.8
2022-11-26T06:31:14.849Z,7.9
2022-11-26T06:51:14.596Z,12.5
2022-11-26T07:11:14.276Z,12.4
2022-11-26T07:31:16.803Z,14.6
2022-11-26T07:51:13.769Z,15.0
2022-11-26T08:11:13.472Z,20.0
2022-11-26T08:31:13.266Z,18.7
2022-11-26T08:51:12.932Z,14.2
2022-11-26T09:11:12.690Z,18.1
2022-11-26T09:31:12.486Z,20.2
2022-11-26T09:51:12.169Z,20.8
2022-11-26T10:11:11.881Z,21.0
2022-11-26T10:31:11.638Z,24.3
2022-11-26T10:51:12.346Z,32.1
2022-11-26T11:11:11.097Z,29.0
2022-11-26T11:31:10.850Z,27.6
2022-11-26T11:51:10.624Z,26.7
2022-11-26T12:11:10.269Z,29.2
2022-11-26T12:31:09.995Z,39.9
2022-11-26T12:51:09.731Z,35.2
2022-11-26T13:11:10.190Z,43.5
2022-11-26T13:31:09.255Z,53.9
2022-11-26T13:51:08.935Z,45.5
2022-11-26T14:11:08.654Z,43.6
2022-11-26T14:31:08.378Z,46.2
2022-11-26T14:51:08.106Z,36.3
2022-11-26T15:11:07.824Z,38.2
2022-11-26T15:31:07.576Z,44.3
2022-11-26T15:51:07.282Z,37.9
2022-11-26T16:11:07.018Z,28.1
2022-11-26T16:31:06.816Z,29.7
2022-11-26T16:51:07.533Z,36.9
2022-11-26T17:11:06.248Z,45.4
2022-11-26T17:31:06.053Z,37.6
2022-11-26T17:51:05.671Z,40.9
2022-11-26T18:11:05.425Z,44.1
2022-11-26T18:31:05.167Z,36.1
2022-11-26T18:51:04.854Z,39.8
2022-11-26T19:11:04.588Z,39.2
2022-11-26T19:31:04.375Z,37.0
2022-11-26T19:51:04.047Z,41.2
2022-11-26T20:11:03.771Z,35.3
2022-11-26T20:31:03.568Z,32.2
2022-11-26T20:51:03.241Z,39.4
2022-11-26T21:11:02.975Z,27.9
2022-11-26T21:31:02.847Z,25.0
2022-11-26T21:51:02.445Z,21.7
2022-11-26T22:11:02.170Z,23.3
2022-11-26T22:31:01.949Z,22.0
2022-11-26T22:51:01.618Z,27.0
2022-11-26T23:11:01.391Z,32.9
2022-11-26T23:31:01.127Z,25.9
2022-11-26T23:51:00.791Z,15.7
